sensor_id;sensor_type;location;lat;lon;timestamp;P1;durP1;ratioP1;P2;durP2;ratioP2
7195;SDS011;3639;51.308;5.624;2023-02-15T00:01:29;29.93;;;14.83;;
7195;SDS011;3639;51.308;5.624;2023-02-15T00:03:55;34.97;;;15.30;;
7195;SDS011;3639;51.308;5.624;2023-02-15T00:06:21;31.67;;;15.23;;
7195;SDS011;3639;51.308;5.624;2023-02-15T00:08:47;27.87;;;15.50;;
7195;SDS011;3639;51.308;5.624;2023-02-15T00:11:14;27.33;;;15.23;;
7195;SDS011;3639;51.308;5.624;2023-02-15T00:13:41;27.80;;;14.20;;
7195;SDS011;3639;51.308;5.624;2023-02-15T00:16:10;30.20;;;14.53;;
7195;SDS011;3639;51.308;5.624;2023-02-15T00:18:38;25.90;;;13.53;;
7195;SDS011;3639;51.308;5.624;2023-02-15T00:21:05;29.47;;;14.47;;
7195;SDS011;3639;51.308;5.624;2023-02-15T00:23:32;34.53;;;15.43;;
7195;SDS011;3639;51.308;5.624;2023-02-15T00:26:11;25.80;;;13.83;;
7195;SDS011;3639;51.308;5.624;2023-02-15T00:28:37;30.83;;;14.50;;
7195;SDS011;3639;51.308;5.624;2023-02-15T00:33:37;28.50;;;14.43;;
7195;SDS011;3639;51.308;5.624;2023-02-15T00:36:03;29.10;;;13.93;;
7195;SDS011;3639;51.308;5.624;2023-02-15T00:38:30;28.03;;;14.77;;
7195;SDS011;3639;51.308;5.624;2023-02-15T00:40:57;30.87;;;14.83;;
7195;SDS011;3639;51.308;5.624;2023-02-15T00:43:25;29.33;;;14.10;;
7195;SDS011;3639;51.308;5.624;2023-02-15T00:45:51;25.77;;;13.57;;
7195;SDS011;3639;51.308;5.624;2023-02-15T00:48:17;26.93;;;13.33;;
7195;SDS011;3639;51.308;5.624;2023-02-15T00:50:44;31.73;;;14.77;;
7195;SDS011;3639;51.308;5.624;2023-02-15T00:53:11;29.77;;;14.10;;
7195;SDS011;3639;51.308;5.624;2023-02-15T00:55:37;30.50;;;14.97;;
7195;SDS011;3639;51.308;5.624;2023-02-15T00:58:05;33.40;;;14.30;;
7195;SDS011;3639;51.308;5.624;2023-02-15T01:00:31;28.73;;;13.60;;
7195;SDS011;3639;51.308;5.624;2023-02-15T01:02:57;32.53;;;14.60;;
7195;SDS011;3639;51.308;5.624;2023-02-15T01:05:22;27.43;;;14.17;;
7195;SDS011;3639;51.308;5.624;2023-02-15T01:07:48;26.60;;;13.67;;
7195;SDS011;3639;51.308;5.624;2023-02-15T01:10:14;32.93;;;15.30;;
7195;SDS011;3639;51.308;5.624;2023-02-15T01:12:39;22.17;;;13.33;;
7195;SDS011;3639;51.308;5.624;2023-02-15T01:15:05;29.43;;;14.57;;
7195;SDS011;3639;51.308;5.624;2023-02-15T01:17:31;31.13;;;13.17;;
7195;SDS011;3639;51.308;5.624;2023-02-15T01:19:57;26.30;;;13.67;;
7195;SDS011;3639;51.308;5.624;2023-02-15T01:22:22;26.40;;;13.53;;
7195;SDS011;3639;51.308;5.624;2023-02-15T01:24:51;33.23;;;14.03;;
7195;SDS011;3639;51.308;5.624;2023-02-15T01:27:17;28.50;;;13.70;;
7195;SDS011;3639;51.308;5.624;2023-02-15T01:29:43;28.23;;;14.70;;
7195;SDS011;3639;51.308;5.624;2023-02-15T01:32:09;22.60;;;13.03;;
7195;SDS011;3639;51.308;5.624;2023-02-15T01:34:34;23.70;;;14.27;;
7195;SDS011;3639;51.308;5.624;2023-02-15T01:37:00;31.13;;;13.23;;
7195;SDS011;3639;51.308;5.624;2023-02-15T01:39:26;33.20;;;14.30;;
7195;SDS011;3639;51.308;5.624;2023-02-15T01:41:51;29.27;;;14.33;;
7195;SDS011;3639;51.308;5.624;2023-02-15T01:47:11;32.77;;;14.50;;
7195;SDS011;3639;51.308;5.624;2023-02-15T01:49:39;25.03;;;13.60;;
7195;SDS011;3639;51.308;5.624;2023-02-15T01:52:07;32.53;;;15.77;;
7195;SDS011;3639;51.308;5.624;2023-02-15T01:54:34;23.67;;;13.30;;
7195;SDS011;3639;51.308;5.624;2023-02-15T01:57:03;34.53;;;13.60;;
7195;SDS011;3639;51.308;5.624;2023-02-15T01:59:32;27.97;;;13.47;;
7195;SDS011;3639;51.308;5.624;2023-02-15T02:02:01;29.47;;;13.37;;
7195;SDS011;3639;51.308;5.624;2023-02-15T02:04:31;26.53;;;14.17;;
7195;SDS011;3639;51.308;5.624;2023-02-15T02:06:58;29.60;;;14.33;;
7195;SDS011;3639;51.308;5.624;2023-02-15T02:09:25;26.10;;;12.57;;
7195;SDS011;3639;51.308;5.624;2023-02-15T02:11:51;27.83;;;13.90;;
7195;SDS011;3639;51.308;5.624;2023-02-15T02:14:19;23.07;;;13.43;;
7195;SDS011;3639;51.308;5.624;2023-02-15T02:22:40;21.07;;;12.53;;
7195;SDS011;3639;51.308;5.624;2023-02-15T02:39:33;27.13;;;13.87;;
7195;SDS011;3639;51.308;5.624;2023-02-15T02:45:06;27.80;;;14.37;;
7195;SDS011;3639;51.308;5.624;2023-02-15T02:47:38;24.63;;;13.63;;
7195;SDS011;3639;51.308;5.624;2023-02-15T02:50:11;27.73;;;12.73;;
7195;SDS011;3639;51.308;5.624;2023-02-15T02:55:08;25.50;;;13.80;;
7195;SDS011;3639;51.308;5.624;2023-02-15T03:00:38;31.67;;;15.37;;
7195;SDS011;3639;51.308;5.624;2023-02-15T03:03:10;27.10;;;13.40;;
7195;SDS011;3639;51.308;5.624;2023-02-15T03:05:41;27.07;;;13.53;;
7195;SDS011;3639;51.308;5.624;2023-02-15T03:08:12;26.00;;;13.33;;
7195;SDS011;3639;51.308;5.624;2023-02-15T03:10:46;29.23;;;13.83;;
7195;SDS011;3639;51.308;5.624;2023-02-15T03:13:20;31.17;;;14.50;;
7195;SDS011;3639;51.308;5.624;2023-02-15T03:15:47;27.10;;;13.77;;
7195;SDS011;3639;51.308;5.624;2023-02-15T03:18:35;21.73;;;13.50;;
7195;SDS011;3639;51.308;5.624;2023-02-15T03:21:03;28.60;;;13.63;;
7195;SDS011;3639;51.308;5.624;2023-02-15T03:23:30;34.73;;;15.63;;
7195;SDS011;3639;51.308;5.624;2023-02-15T03:26:03;28.93;;;14.17;;
7195;SDS011;3639;51.308;5.624;2023-02-15T03:28:42;22.97;;;13.43;;
7195;SDS011;3639;51.308;5.624;2023-02-15T03:31:11;24.57;;;14.83;;
7195;SDS011;3639;51.308;5.624;2023-02-15T03:34:02;25.83;;;15.33;;
7195;SDS011;3639;51.308;5.624;2023-02-15T03:42:10;40.00;;;17.23;;
7195;SDS011;3639;51.308;5.624;2023-02-15T03:44:46;30.17;;;15.43;;
7195;SDS011;3639;51.308;5.624;2023-02-15T03:47:13;25.83;;;15.90;;
7195;SDS011;3639;51.308;5.624;2023-02-15T03:49:53;30.30;;;15.50;;
7195;SDS011;3639;51.308;5.624;2023-02-15T03:52:51;32.73;;;17.63;;
7195;SDS011;3639;51.308;5.624;2023-02-15T03:55:17;36.83;;;16.57;;
7195;SDS011;3639;51.308;5.624;2023-02-15T03:57:43;31.50;;;16.40;;
7195;SDS011;3639;51.308;5.624;2023-02-15T04:00:28;28.17;;;15.87;;
7195;SDS011;3639;51.308;5.624;2023-02-15T04:03:22;31.03;;;16.77;;
7195;SDS011;3639;51.308;5.624;2023-02-15T04:05:54;32.27;;;17.30;;
7195;SDS011;3639;51.308;5.624;2023-02-15T04:08:19;33.47;;;17.13;;
7195;SDS011;3639;51.308;5.624;2023-02-15T04:11:05;31.77;;;15.90;;
7195;SDS011;3639;51.308;5.624;2023-02-15T04:13:31;33.20;;;16.80;;
7195;SDS011;3639;51.308;5.624;2023-02-15T04:15:57;30.70;;;16.33;;
7195;SDS011;3639;51.308;5.624;2023-02-15T04:18:30;29.07;;;14.87;;
7195;SDS011;3639;51.308;5.624;2023-02-15T04:21:16;30.27;;;15.93;;
7195;SDS011;3639;51.308;5.624;2023-02-15T04:24:00;28.07;;;16.77;;
7195;SDS011;3639;51.308;5.624;2023-02-15T04:26:44;30.67;;;16.40;;
7195;SDS011;3639;51.308;5.624;2023-02-15T04:29:10;31.33;;;16.37;;
7195;SDS011;3639;51.308;5.624;2023-02-15T04:31:36;35.77;;;17.00;;
7195;SDS011;3639;51.308;5.624;2023-02-15T04:34:02;37.83;;;16.67;;
7195;SDS011;3639;51.308;5.624;2023-02-15T04:36:27;34.77;;;16.90;;
7195;SDS011;3639;51.308;5.624;2023-02-15T04:38:53;29.20;;;15.87;;
7195;SDS011;3639;51.308;5.624;2023-02-15T04:41:18;35.53;;;16.90;;
7195;SDS011;3639;51.308;5.624;2023-02-15T04:43:44;25.73;;;15.93;;
7195;SDS011;3639;51.308;5.624;2023-02-15T04:46:10;31.00;;;15.50;;
7195;SDS011;3639;51.308;5.624;2023-02-15T04:48:35;37.80;;;18.37;;
7195;SDS011;3639;51.308;5.624;2023-02-15T04:51:05;33.67;;;17.40;;
7195;SDS011;3639;51.308;5.624;2023-02-15T04:53:32;27.90;;;15.83;;
7195;SDS011;3639;51.308;5.624;2023-02-15T04:55:57;30.07;;;16.03;;
7195;SDS011;3639;51.308;5.624;2023-02-15T04:58:23;32.57;;;15.37;;
7195;SDS011;3639;51.308;5.624;2023-02-15T05:00:49;29.60;;;15.97;;
7195;SDS011;3639;51.308;5.624;2023-02-15T05:03:14;28.30;;;16.17;;
7195;SDS011;3639;51.308;5.624;2023-02-15T05:05:40;28.90;;;14.67;;
7195;SDS011;3639;51.308;5.624;2023-02-15T05:08:05;26.47;;;14.43;;
7195;SDS011;3639;51.308;5.624;2023-02-15T05:10:31;29.17;;;14.47;;
7195;SDS011;3639;51.308;5.624;2023-02-15T05:12:57;31.37;;;15.90;;
7195;SDS011;3639;51.308;5.624;2023-02-15T05:15:22;29.37;;;15.33;;
7195;SDS011;3639;51.308;5.624;2023-02-15T05:17:48;28.63;;;14.50;;
7195;SDS011;3639;51.308;5.624;2023-02-15T05:20:14;31.00;;;16.13;;
7195;SDS011;3639;51.308;5.624;2023-02-15T05:22:40;35.47;;;16.30;;
7195;SDS011;3639;51.308;5.624;2023-02-15T05:25:06;28.97;;;15.00;;
7195;SDS011;3639;51.308;5.624;2023-02-15T05:27:51;29.97;;;14.83;;
7195;SDS011;3639;51.308;5.624;2023-02-15T05:30:36;32.53;;;14.30;;
7195;SDS011;3639;51.308;5.624;2023-02-15T05:33:04;27.63;;;14.33;;
7195;SDS011;3639;51.308;5.624;2023-02-15T05:35:31;30.83;;;15.90;;
7195;SDS011;3639;51.308;5.624;2023-02-15T05:37:57;33.73;;;15.40;;
7195;SDS011;3639;51.308;5.624;2023-02-15T05:40:22;27.53;;;14.13;;
7195;SDS011;3639;51.308;5.624;2023-02-15T05:42:48;33.43;;;16.60;;
7195;SDS011;3639;51.308;5.624;2023-02-15T05:45:14;34.23;;;14.97;;
7195;SDS011;3639;51.308;5.624;2023-02-15T05:47:40;33.63;;;15.53;;
7195;SDS011;3639;51.308;5.624;2023-02-15T05:50:06;38.67;;;17.00;;
7195;SDS011;3639;51.308;5.624;2023-02-15T05:52:33;30.17;;;14.37;;
7195;SDS011;3639;51.308;5.624;2023-02-15T05:54:59;31.93;;;15.03;;
7195;SDS011;3639;51.308;5.624;2023-02-15T05:57:25;33.60;;;16.50;;
7195;SDS011;3639;51.308;5.624;2023-02-15T05:59:51;37.10;;;15.73;;
7195;SDS011;3639;51.308;5.624;2023-02-15T06:02:17;34.43;;;15.13;;
7195;SDS011;3639;51.308;5.624;2023-02-15T06:04:43;33.77;;;16.47;;
7195;SDS011;3639;51.308;5.624;2023-02-15T06:07:09;27.17;;;13.73;;
7195;SDS011;3639;51.308;5.624;2023-02-15T06:09:35;41.87;;;16.30;;
7195;SDS011;3639;51.308;5.624;2023-02-15T06:12:00;29.10;;;14.83;;
7195;SDS011;3639;51.308;5.624;2023-02-15T06:14:26;36.07;;;15.77;;
7195;SDS011;3639;51.308;5.624;2023-02-15T06:16:51;39.60;;;15.87;;
7195;SDS011;3639;51.308;5.624;2023-02-15T06:19:17;31.90;;;16.83;;
7195;SDS011;3639;51.308;5.624;2023-02-15T06:21:43;35.90;;;16.00;;
7195;SDS011;3639;51.308;5.624;2023-02-15T06:24:08;29.10;;;15.20;;
7195;SDS011;3639;51.308;5.624;2023-02-15T06:26:34;39.77;;;17.43;;
7195;SDS011;3639;51.308;5.624;2023-02-15T06:29:00;29.83;;;15.27;;
7195;SDS011;3639;51.308;5.624;2023-02-15T06:31:26;42.07;;;17.43;;
7195;SDS011;3639;51.308;5.624;2023-02-15T06:33:51;35.00;;;16.27;;
7195;SDS011;3639;51.308;5.624;2023-02-15T06:36:17;34.93;;;16.67;;
7195;SDS011;3639;51.308;5.624;2023-02-15T06:38:43;47.50;;;17.57;;
7195;SDS011;3639;51.308;5.624;2023-02-15T06:41:08;39.03;;;16.00;;
7195;SDS011;3639;51.308;5.624;2023-02-15T06:43:34;34.47;;;16.70;;
7195;SDS011;3639;51.308;5.624;2023-02-15T06:46:00;29.70;;;15.60;;
7195;SDS011;3639;51.308;5.624;2023-02-15T06:48:26;40.33;;;17.53;;
7195;SDS011;3639;51.308;5.624;2023-02-15T06:50:51;37.37;;;16.67;;
7195;SDS011;3639;51.308;5.624;2023-02-15T06:53:17;35.87;;;16.07;;
7195;SDS011;3639;51.308;5.624;2023-02-15T06:55:42;29.57;;;15.37;;
7195;SDS011;3639;51.308;5.624;2023-02-15T06:58:08;33.63;;;15.10;;
7195;SDS011;3639;51.308;5.624;2023-02-15T07:00:34;32.90;;;15.90;;
7195;SDS011;3639;51.308;5.624;2023-02-15T07:02:59;29.43;;;15.40;;
7195;SDS011;3639;51.308;5.624;2023-02-15T07:05:27;37.07;;;16.20;;
7195;SDS011;3639;51.308;5.624;2023-02-15T07:07:56;39.03;;;17.27;;
7195;SDS011;3639;51.308;5.624;2023-02-15T07:10:22;31.70;;;15.40;;
7195;SDS011;3639;51.308;5.624;2023-02-15T07:12:48;40.30;;;16.10;;
7195;SDS011;3639;51.308;5.624;2023-02-15T07:15:15;30.60;;;15.93;;
7195;SDS011;3639;51.308;5.624;2023-02-15T07:17:42;40.73;;;16.80;;
7195;SDS011;3639;51.308;5.624;2023-02-15T07:20:10;35.30;;;17.77;;
7195;SDS011;3639;51.308;5.624;2023-02-15T07:22:41;40.77;;;17.43;;
7195;SDS011;3639;51.308;5.624;2023-02-15T07:25:08;48.53;;;17.53;;
7195;SDS011;3639;51.308;5.624;2023-02-15T07:27:35;45.80;;;17.37;;
7195;SDS011;3639;51.308;5.624;2023-02-15T07:30:02;36.33;;;17.87;;
7195;SDS011;3639;51.308;5.624;2023-02-15T07:32:30;38.40;;;17.47;;
7195;SDS011;3639;51.308;5.624;2023-02-15T07:34:57;36.20;;;17.17;;
7195;SDS011;3639;51.308;5.624;2023-02-15T07:37:23;33.43;;;17.07;;
7195;SDS011;3639;51.308;5.624;2023-02-15T07:39:49;38.93;;;16.83;;
7195;SDS011;3639;51.308;5.624;2023-02-15T07:42:15;38.03;;;17.40;;
7195;SDS011;3639;51.308;5.624;2023-02-15T07:44:41;40.07;;;17.17;;
7195;SDS011;3639;51.308;5.624;2023-02-15T07:47:06;38.03;;;17.07;;
7195;SDS011;3639;51.308;5.624;2023-02-15T07:49:32;39.27;;;17.50;;
7195;SDS011;3639;51.308;5.624;2023-02-15T07:51:58;36.80;;;17.53;;
7195;SDS011;3639;51.308;5.624;2023-02-15T07:54:26;41.33;;;18.60;;
7195;SDS011;3639;51.308;5.624;2023-02-15T07:56:52;37.67;;;17.87;;
7195;SDS011;3639;51.308;5.624;2023-02-15T07:59:18;39.67;;;16.90;;
7195;SDS011;3639;51.308;5.624;2023-02-15T08:01:43;42.87;;;18.63;;
7195;SDS011;3639;51.308;5.624;2023-02-15T08:04:09;40.83;;;18.37;;
7195;SDS011;3639;51.308;5.624;2023-02-15T08:06:36;39.40;;;18.27;;
7195;SDS011;3639;51.308;5.624;2023-02-15T08:09:03;44.07;;;18.97;;
7195;SDS011;3639;51.308;5.624;2023-02-15T08:11:31;44.73;;;17.83;;
7195;SDS011;3639;51.308;5.624;2023-02-15T08:14:02;39.10;;;17.90;;
7195;SDS011;3639;51.308;5.624;2023-02-15T08:19:02;43.27;;;19.80;;
7195;SDS011;3639;51.308;5.624;2023-02-15T08:21:31;49.13;;;18.33;;
7195;SDS011;3639;51.308;5.624;2023-02-15T08:23:58;38.43;;;19.07;;
7195;SDS011;3639;51.308;5.624;2023-02-15T08:26:24;50.20;;;19.60;;
7195;SDS011;3639;51.308;5.624;2023-02-15T08:28:52;49.63;;;20.23;;
7195;SDS011;3639;51.308;5.624;2023-02-15T08:31:18;44.60;;;20.03;;
7195;SDS011;3639;51.308;5.624;2023-02-15T08:33:45;41.07;;;19.80;;
7195;SDS011;3639;51.308;5.624;2023-02-15T08:36:13;54.27;;;20.07;;
7195;SDS011;3639;51.308;5.624;2023-02-15T08:38:46;46.80;;;20.80;;
7195;SDS011;3639;51.308;5.624;2023-02-15T08:41:13;40.00;;;20.87;;
7195;SDS011;3639;51.308;5.624;2023-02-15T08:43:48;44.70;;;19.57;;
7195;SDS011;3639;51.308;5.624;2023-02-15T08:46:16;43.50;;;19.87;;
7195;SDS011;3639;51.308;5.624;2023-02-15T08:48:42;49.50;;;21.67;;
7195;SDS011;3639;51.308;5.624;2023-02-15T08:51:10;48.90;;;21.07;;
7195;SDS011;3639;51.308;5.624;2023-02-15T08:53:38;42.63;;;20.63;;
7195;SDS011;3639;51.308;5.624;2023-02-15T08:56:05;46.03;;;22.47;;
7195;SDS011;3639;51.308;5.624;2023-02-15T08:58:31;46.43;;;20.33;;
7195;SDS011;3639;51.308;5.624;2023-02-15T09:00:57;49.73;;;21.10;;
7195;SDS011;3639;51.308;5.624;2023-02-15T09:03:23;47.77;;;20.40;;
7195;SDS011;3639;51.308;5.624;2023-02-15T09:05:48;47.83;;;21.97;;
7195;SDS011;3639;51.308;5.624;2023-02-15T09:08:14;46.03;;;21.37;;
7195;SDS011;3639;51.308;5.624;2023-02-15T09:10:40;47.00;;;21.90;;
7195;SDS011;3639;51.308;5.624;2023-02-15T09:13:06;39.53;;;20.93;;
7195;SDS011;3639;51.308;5.624;2023-02-15T09:15:32;39.90;;;20.30;;
7195;SDS011;3639;51.308;5.624;2023-02-15T09:17:57;39.60;;;18.57;;
7195;SDS011;3639;51.308;5.624;2023-02-15T09:20:30;40.97;;;18.87;;
7195;SDS011;3639;51.308;5.624;2023-02-15T09:22:56;32.97;;;16.73;;
7195;SDS011;3639;51.308;5.624;2023-02-15T09:25:22;45.80;;;18.03;;
7195;SDS011;3639;51.308;5.624;2023-02-15T09:27:48;38.47;;;17.83;;
7195;SDS011;3639;51.308;5.624;2023-02-15T09:30:13;38.00;;;18.90;;
7195;SDS011;3639;51.308;5.624;2023-02-15T09:32:39;39.60;;;17.90;;
7195;SDS011;3639;51.308;5.624;2023-02-15T09:35:05;34.93;;;16.60;;
7195;SDS011;3639;51.308;5.624;2023-02-15T09:37:31;36.83;;;17.73;;
7195;SDS011;3639;51.308;5.624;2023-02-15T09:39:57;42.63;;;19.87;;
7195;SDS011;3639;51.308;5.624;2023-02-15T09:42:35;33.83;;;17.43;;
7195;SDS011;3639;51.308;5.624;2023-02-15T09:45:39;31.67;;;16.23;;
7195;SDS011;3639;51.308;5.624;2023-02-15T09:48:38;41.83;;;17.40;;
7195;SDS011;3639;51.308;5.624;2023-02-15T09:51:10;35.70;;;16.77;;
7195;SDS011;3639;51.308;5.624;2023-02-15T09:59:12;33.30;;;18.33;;
7195;SDS011;3639;51.308;5.624;2023-02-15T10:04:30;31.93;;;16.77;;
7195;SDS011;3639;51.308;5.624;2023-02-15T10:13:08;33.07;;;16.43;;
7195;SDS011;3639;51.308;5.624;2023-02-15T10:19:54;32.17;;;16.70;;
7195;SDS011;3639;51.308;5.624;2023-02-15T10:21:59;32.67;;;15.63;;
7195;SDS011;3639;51.308;5.624;2023-02-15T10:24:38;33.80;;;16.33;;
7195;SDS011;3639;51.308;5.624;2023-02-15T10:27:13;31.03;;;16.47;;
7195;SDS011;3639;51.308;5.624;2023-02-15T10:32:31;30.20;;;16.13;;
7195;SDS011;3639;51.308;5.624;2023-02-15T10:38:34;28.30;;;14.30;;
7195;SDS011;3639;51.308;5.624;2023-02-15T10:54:43;29.03;;;14.57;;
7195;SDS011;3639;51.308;5.624;2023-02-15T11:08:20;27.30;;;14.33;;
7195;SDS011;3639;51.308;5.624;2023-02-15T11:10:50;28.87;;;14.90;;
7195;SDS011;3639;51.308;5.624;2023-02-15T11:13:24;31.13;;;15.43;;
7195;SDS011;3639;51.308;5.624;2023-02-15T11:16:06;31.13;;;15.23;;
7195;SDS011;3639;51.308;5.624;2023-02-15T11:18:41;30.27;;;15.37;;
7195;SDS011;3639;51.308;5.624;2023-02-15T11:21:26;27.03;;;13.87;;
7195;SDS011;3639;51.308;5.624;2023-02-15T11:23:57;27.07;;;14.43;;
7195;SDS011;3639;51.308;5.624;2023-02-15T11:26:34;32.10;;;15.90;;
7195;SDS011;3639;51.308;5.624;2023-02-15T11:29:21;28.03;;;13.87;;
7195;SDS011;3639;51.308;5.624;2023-02-15T11:31:59;25.90;;;13.47;;
7195;SDS011;3639;51.308;5.624;2023-02-15T11:34:52;26.90;;;14.90;;
7195;SDS011;3639;51.308;5.624;2023-02-15T11:40:39;27.63;;;14.10;;
7195;SDS011;3639;51.308;5.624;2023-02-15T11:43:20;26.60;;;14.03;;
7195;SDS011;3639;51.308;5.624;2023-02-15T11:45:56;24.33;;;13.67;;
7195;SDS011;3639;51.308;5.624;2023-02-15T11:48:21;27.60;;;14.97;;
7195;SDS011;3639;51.308;5.624;2023-02-15T11:50:47;27.60;;;14.00;;
7195;SDS011;3639;51.308;5.624;2023-02-15T11:53:14;24.30;;;13.60;;
7195;SDS011;3639;51.308;5.624;2023-02-15T11:55:43;25.50;;;13.83;;
7195;SDS011;3639;51.308;5.624;2023-02-15T12:00:45;26.77;;;13.43;;
7195;SDS011;3639;51.308;5.624;2023-02-15T12:03:19;30.70;;;14.30;;
7195;SDS011;3639;51.308;5.624;2023-02-15T12:05:53;24.67;;;13.27;;
7195;SDS011;3639;51.308;5.624;2023-02-15T12:08:25;26.67;;;13.03;;
7195;SDS011;3639;51.308;5.624;2023-02-15T12:11:05;23.90;;;13.43;;
7195;SDS011;3639;51.308;5.624;2023-02-15T12:13:55;26.33;;;13.33;;
7195;SDS011;3639;51.308;5.624;2023-02-15T12:16:31;23.53;;;11.63;;
7195;SDS011;3639;51.308;5.624;2023-02-15T12:22:21;22.00;;;10.37;;
7195;SDS011;3639;51.308;5.624;2023-02-15T12:24:54;24.43;;;12.10;;
7195;SDS011;3639;51.308;5.624;2023-02-15T12:27:32;23.13;;;11.37;;
7195;SDS011;3639;51.308;5.624;2023-02-15T12:30:04;23.50;;;11.17;;
7195;SDS011;3639;51.308;5.624;2023-02-15T12:32:35;24.13;;;11.47;;
7195;SDS011;3639;51.308;5.624;2023-02-15T12:35:15;26.37;;;11.47;;
7195;SDS011;3639;51.308;5.624;2023-02-15T12:37:56;23.87;;;11.27;;
7195;SDS011;3639;51.308;5.624;2023-02-15T12:40:33;23.40;;;11.77;;
7195;SDS011;3639;51.308;5.624;2023-02-15T12:43:00;22.47;;;11.33;;
7195;SDS011;3639;51.308;5.624;2023-02-15T12:45:33;22.87;;;11.30;;
7195;SDS011;3639;51.308;5.624;2023-02-15T12:50:32;23.63;;;12.13;;
7195;SDS011;3639;51.308;5.624;2023-02-15T12:55:56;27.40;;;11.77;;
7195;SDS011;3639;51.308;5.624;2023-02-15T12:58:24;24.70;;;11.53;;
7195;SDS011;3639;51.308;5.624;2023-02-15T13:01:10;24.77;;;12.20;;
7195;SDS011;3639;51.308;5.624;2023-02-15T13:03:54;23.73;;;11.80;;
7195;SDS011;3639;51.308;5.624;2023-02-15T13:06:20;29.53;;;12.57;;
7195;SDS011;3639;51.308;5.624;2023-02-15T13:08:47;23.93;;;12.73;;
7195;SDS011;3639;51.308;5.624;2023-02-15T13:11:21;22.50;;;11.27;;
7195;SDS011;3639;51.308;5.624;2023-02-15T13:14:01;25.17;;;11.13;;
7195;SDS011;3639;51.308;5.624;2023-02-15T13:16:38;23.67;;;11.80;;
7195;SDS011;3639;51.308;5.624;2023-02-15T13:21:39;28.73;;;11.90;;
7195;SDS011;3639;51.308;5.624;2023-02-15T13:24:17;23.93;;;11.50;;
7195;SDS011;3639;51.308;5.624;2023-02-15T13:26:47;28.80;;;13.47;;
7195;SDS011;3639;51.308;5.624;2023-02-15T13:29:17;25.93;;;12.63;;
7195;SDS011;3639;51.308;5.624;2023-02-15T13:31:47;28.17;;;12.73;;
7195;SDS011;3639;51.308;5.624;2023-02-15T13:34:20;25.30;;;12.70;;
7195;SDS011;3639;51.308;5.624;2023-02-15T13:36:51;27.03;;;13.37;;
7195;SDS011;3639;51.308;5.624;2023-02-15T13:55:40;25.73;;;11.27;;
7195;SDS011;3639;51.308;5.624;2023-02-15T13:58:16;27.83;;;12.47;;
7195;SDS011;3639;51.308;5.624;2023-02-15T14:03:47;29.40;;;12.87;;
7195;SDS011;3639;51.308;5.624;2023-02-15T14:20:51;25.47;;;12.20;;
7195;SDS011;3639;51.308;5.624;2023-02-15T14:26:10;28.50;;;12.17;;
7195;SDS011;3639;51.308;5.624;2023-02-15T14:31:25;29.97;;;13.17;;
7195;SDS011;3639;51.308;5.624;2023-02-15T14:34:03;25.97;;;11.90;;
7195;SDS011;3639;51.308;5.624;2023-02-15T14:36:29;27.33;;;13.23;;
7195;SDS011;3639;51.308;5.624;2023-02-15T14:39:06;27.60;;;13.40;;
7195;SDS011;3639;51.308;5.624;2023-02-15T14:41:53;24.07;;;12.57;;
7195;SDS011;3639;51.308;5.624;2023-02-15T14:47:12;27.07;;;12.30;;
7195;SDS011;3639;51.308;5.624;2023-02-15T14:49:47;28.17;;;12.83;;
7195;SDS011;3639;51.308;5.624;2023-02-15T14:52:13;26.17;;;12.13;;
7195;SDS011;3639;51.308;5.624;2023-02-15T15:04:37;23.43;;;11.70;;
7195;SDS011;3639;51.308;5.624;2023-02-15T15:07:22;23.03;;;12.17;;
7195;SDS011;3639;51.308;5.624;2023-02-15T15:10:03;25.87;;;11.90;;
7195;SDS011;3639;51.308;5.624;2023-02-15T15:12:42;25.53;;;12.43;;
7195;SDS011;3639;51.308;5.624;2023-02-15T15:18:00;25.30;;;11.87;;
7195;SDS011;3639;51.308;5.624;2023-02-15T15:25:49;25.83;;;12.40;;
7195;SDS011;3639;51.308;5.624;2023-02-15T15:31:18;27.17;;;13.30;;
7195;SDS011;3639;51.308;5.624;2023-02-15T15:45:08;22.30;;;13.47;;
7195;SDS011;3639;51.308;5.624;2023-02-15T15:50:41;30.77;;;13.73;;
7195;SDS011;3639;51.308;5.624;2023-02-15T15:53:13;27.93;;;14.57;;
7195;SDS011;3639;51.308;5.624;2023-02-15T15:55:46;28.20;;;15.23;;
7195;SDS011;3639;51.308;5.624;2023-02-15T15:58:15;28.27;;;15.03;;
7195;SDS011;3639;51.308;5.624;2023-02-15T16:00:48;28.43;;;15.60;;
7195;SDS011;3639;51.308;5.624;2023-02-15T16:03:27;30.27;;;18.07;;
7195;SDS011;3639;51.308;5.624;2023-02-15T16:05:53;31.57;;;17.37;;
7195;SDS011;3639;51.308;5.624;2023-02-15T16:08:32;35.73;;;19.07;;
7195;SDS011;3639;51.308;5.624;2023-02-15T16:11:02;39.90;;;21.87;;
7195;SDS011;3639;51.308;5.624;2023-02-15T16:13:40;32.73;;;16.23;;
7195;SDS011;3639;51.308;5.624;2023-02-15T16:16:06;31.13;;;18.13;;
7195;SDS011;3639;51.308;5.624;2023-02-15T16:18:34;51.70;;;30.17;;
7195;SDS011;3639;51.308;5.624;2023-02-15T16:21:17;42.97;;;26.80;;
7195;SDS011;3639;51.308;5.624;2023-02-15T16:28:53;29.50;;;15.17;;
7195;SDS011;3639;51.308;5.624;2023-02-15T16:31:19;30.37;;;16.37;;
7195;SDS011;3639;51.308;5.624;2023-02-15T16:33:47;29.90;;;15.13;;
7195;SDS011;3639;51.308;5.624;2023-02-15T16:36:26;32.90;;;15.50;;
7195;SDS011;3639;51.308;5.624;2023-02-15T16:41:22;28.60;;;16.30;;
7195;SDS011;3639;51.308;5.624;2023-02-15T16:43:50;27.97;;;16.10;;
7195;SDS011;3639;51.308;5.624;2023-02-15T16:46:25;28.90;;;14.93;;
7195;SDS011;3639;51.308;5.624;2023-02-15T16:48:57;27.47;;;14.73;;
7195;SDS011;3639;51.308;5.624;2023-02-15T16:51:27;28.40;;;16.53;;
7195;SDS011;3639;51.308;5.624;2023-02-15T16:53:55;31.60;;;16.47;;
7195;SDS011;3639;51.308;5.624;2023-02-15T16:56:24;29.90;;;16.20;;
7195;SDS011;3639;51.308;5.624;2023-02-15T16:58:55;30.03;;;16.47;;
7195;SDS011;3639;51.308;5.624;2023-02-15T17:01:23;31.70;;;17.03;;
7195;SDS011;3639;51.308;5.624;2023-02-15T17:03:51;35.90;;;17.30;;
7195;SDS011;3639;51.308;5.624;2023-02-15T17:06:39;34.13;;;17.43;;
7195;SDS011;3639;51.308;5.624;2023-02-15T17:09:06;30.13;;;16.33;;
7195;SDS011;3639;51.308;5.624;2023-02-15T17:11:43;31.53;;;16.70;;
7195;SDS011;3639;51.308;5.624;2023-02-15T17:19:46;34.43;;;17.47;;
7195;SDS011;3639;51.308;5.624;2023-02-15T17:22:21;35.33;;;18.67;;
7195;SDS011;3639;51.308;5.624;2023-02-15T17:24:50;31.27;;;17.93;;
7195;SDS011;3639;51.308;5.624;2023-02-15T17:27:24;32.30;;;16.93;;
7195;SDS011;3639;51.308;5.624;2023-02-15T17:30:01;34.13;;;17.97;;
7195;SDS011;3639;51.308;5.624;2023-02-15T17:32:37;37.53;;;18.27;;
7195;SDS011;3639;51.308;5.624;2023-02-15T17:35:18;34.40;;;17.47;;
7195;SDS011;3639;51.308;5.624;2023-02-15T17:37:47;34.10;;;18.13;;
7195;SDS011;3639;51.308;5.624;2023-02-15T17:40:27;35.37;;;17.33;;
7195;SDS011;3639;51.308;5.624;2023-02-15T17:43:00;31.07;;;16.13;;
7195;SDS011;3639;51.308;5.624;2023-02-15T17:45:33;35.47;;;17.73;;
7195;SDS011;3639;51.308;5.624;2023-02-15T17:48:03;34.23;;;18.50;;
7195;SDS011;3639;51.308;5.624;2023-02-15T17:50:30;29.23;;;16.80;;
7195;SDS011;3639;51.308;5.624;2023-02-15T17:52:57;34.80;;;18.43;;
7195;SDS011;3639;51.308;5.624;2023-02-15T17:55:25;32.90;;;16.67;;
7195;SDS011;3639;51.308;5.624;2023-02-15T17:58:04;31.87;;;17.03;;
7195;SDS011;3639;51.308;5.624;2023-02-15T18:00:36;36.70;;;18.97;;
7195;SDS011;3639;51.308;5.624;2023-02-15T18:03:29;32.07;;;17.90;;
7195;SDS011;3639;51.308;5.624;2023-02-15T18:06:21;34.93;;;19.13;;
7195;SDS011;3639;51.308;5.624;2023-02-15T18:09:07;33.90;;;16.63;;
7195;SDS011;3639;51.308;5.624;2023-02-15T18:11:54;34.53;;;16.83;;
7195;SDS011;3639;51.308;5.624;2023-02-15T18:14:19;31.40;;;16.33;;
7195;SDS011;3639;51.308;5.624;2023-02-15T18:16:45;34.47;;;17.40;;
7195;SDS011;3639;51.308;5.624;2023-02-15T18:19:15;29.97;;;17.00;;
7195;SDS011;3639;51.308;5.624;2023-02-15T18:21:51;37.13;;;17.77;;
7195;SDS011;3639;51.308;5.624;2023-02-15T18:24:21;32.30;;;16.43;;
7195;SDS011;3639;51.308;5.624;2023-02-15T18:26:48;34.40;;;17.13;;